Time;durP1;ratioP1;P1;durP2;ratioP2;P2;SDS_P1;SDS_P2;PMS_P1;PMS_P2;Temp;Humidity;BMP_temperature;BMP_pressure;BME280_temperature;BME280_humidity;BME280_pressure;Samples;Min_cycle;Max_cycle;Signal;HPM_P1;HPM_P2
2021/12/31 12:21:51;;;;;;;2.20;1.50;;;23.10;34.50;;;;;;5086823;27;20439;-52
2021/12/31 12:25:16;;;;;;;3.42;1.60;;;23.10;35.30;;;;;;5068049;28;20032;-66
2021/12/31 12:29:43;;;;;;;2.97;1.27;;;23.00;34.70;;;;;;4616403;27;15023875;-63
2021/12/31 12:36:16;;;;;;;3.45;0.90;;;21.30;38.40;;;;;;5144663;27;20164;-49
2021/12/31 12:39:41;;;;;;;1.70;1.08;;;19.00;48.90;;;;;;5142705;27;20482;-47
2021/12/31 12:43:08;;;;;;;3.67;1.02;;;17.40;60.40;;;;;;5127366;27;20410;-55
2021/12/31 12:46:32;;;;;;;3.13;0.98;;;16.30;73.30;;;;;;5137065;27;20035;-54
2021/12/31 12:49:57;;;;;;;1.63;0.98;;;15.50;90.10;;;;;;5132018;27;20103;-55
2021/12/31 12:53:32;;;;;;;2.75;0.80;;;14.90;98.00;;;;;;5134087;27;20031;-71
2021/12/31 12:56:57;;;;;;;2.55;1.00;;;14.60;96.00;;;;;;5131130;27;20398;-75
2021/12/31 13:00:23;;;;;;;2.33;0.93;;;14.30;99.90;;;;;;5142644;27;20095;-80
2021/12/31 13:03:48;;;;;;;1.00;0.68;;;14.10;99.90;;;;;;5140719;27;20042;-78
2021/12/31 13:07:17;;;;;;;1.65;0.93;;;13.90;99.90;;;;;;5136616;27;20029;-75
2021/12/31 13:10:25;;;;;;;;;;;13.80;99.90;;;;;;5145806;27;20498;-75
2021/12/31 13:13:30;;;;;;;;;;;13.80;99.90;;;;;;5145446;27;19913;-75
2021/12/31 13:16:59;;;;;;;1.02;0.80;;;13.70;99.90;;;;;;5145073;27;19982;-75
2021/12/31 13:20:24;;;;;;;1.67;0.88;;;13.60;99.90;;;;;;5140990;27;20344;-75
2021/12/31 13:23:50;;;;;;;2.72;1.23;;;13.60;99.90;;;;;;5140868;27;20046;-75
2021/12/31 13:27:16;;;;;;;4.28;1.30;;;13.60;99.90;;;;;;5138738;27;20314;-75
2021/12/31 13:30:43;;;;;;;2.42;1.25;;;13.50;99.90;;;;;;5146515;27;20421;-75
2021/12/31 13:34:12;;;;;;;5.70;1.20;;;13.50;99.90;;;;;;5143338;27;20050;-75
2021/12/31 13:37:17;;;;;;;;;;;13.50;99.90;;;;;;5131351;27;20031;-75
2021/12/31 13:40:43;;;;;;;1.58;1.10;;;13.50;99.90;;;;;;5117650;27;20383;-75
2021/12/31 13:44:14;;;;;;;1.85;0.88;;;13.40;99.90;;;;;;5125134;27;20046;-75
2021/12/31 13:47:05;;;;;;;1.73;0.98;;;13.40;99.90;;;;;;5128012;27;20051;-75
2021/12/31 13:50:31;;;;;;;3.28;1.10;;;13.40;99.90;;;;;;5118300;27;20142;-75
2021/12/31 13:53:59;;;;;;;2.10;1.08;;;13.40;99.90;;;;;;5124383;27;20522;-76
2021/12/31 13:57:04;;;;;;;;;;;13.40;99.90;;;;;;5126925;27;20058;-75
2021/12/31 14:00:30;;;;;;;3.17;1.63;;;13.40;99.90;;;;;;5124114;27;19945;-75
2021/12/31 14:03:55;;;;;;;2.22;1.23;;;13.40;99.90;;;;;;5115091;27;20024;-75
2021/12/31 14:07:37;;;;;;;2.55;1.05;;;13.40;99.90;;;;;;5120650;27;20035;-75
2021/12/31 14:10:31;;;;;;;1.73;1.00;;;13.40;99.90;;;;;;5114807;27;20104;-64
2021/12/31 14:13:08;;;;;;;1.25;1.00;;;13.40;99.90;;;;;;5117172;27;20034;-65
2021/12/31 14:15:36;;;;;;;2.50;1.00;;;13.40;99.90;;;;;;5111828;27;20099;-65
2021/12/31 14:18:05;;;;;;;1.45;1.05;;;13.40;99.90;;;;;;5134303;27;20031;-65
2021/12/31 14:20:33;;;;;;;1.98;0.85;;;13.40;99.90;;;;;;5138941;27;20287;-65
2021/12/31 14:22:59;;;;;;;1.48;1.00;;;13.30;99.90;;;;;;5129297;27;20027;-65
2021/12/31 14:25:28;;;;;;;2.10;1.38;;;13.30;99.90;;;;;;5126572;27;20475;-65
2021/12/31 14:27:54;;;;;;;2.20;1.17;;;13.30;99.90;;;;;;5132080;27;20051;-64
2021/12/31 14:30:25;;;;;;;1.85;0.90;;;13.30;99.90;;;;;;5139079;27;20424;-65
2021/12/31 14:32:52;;;;;;;2.88;1.15;;;13.30;99.90;;;;;;5121679;27;20032;-64
2021/12/31 14:35:28;;;;;;;2.83;1.15;;;13.20;99.90;;;;;;5119108;27;20030;-65
2021/12/31 14:37:54;;;;;;;1.10;1.00;;;13.20;99.90;;;;;;5125446;27;20084;-65
2021/12/31 14:40:21;;;;;;;1.00;0.88;;;13.20;99.90;;;;;;5140094;27;20027;-65
2021/12/31 14:42:48;;;;;;;1.27;0.95;;;13.10;99.90;;;;;;5123120;27;20041;-65
2021/12/31 14:45:14;;;;;;;3.28;1.30;;;13.10;99.90;;;;;;5120976;27;20023;-65
2021/12/31 14:47:44;;;;;;;1.85;1.17;;;13.10;99.90;;;;;;5134180;27;20315;-65
2021/12/31 14:50:13;;;;;;;1.40;1.30;;;13.10;99.90;;;;;;5121820;27;20031;-65
2021/12/31 14:52:41;;;;;;;1.58;0.98;;;13.10;99.90;;;;;;5128127;27;20115;-65
2021/12/31 14:55:10;;;;;;;2.58;1.20;;;13.20;99.90;;;;;;5119017;27;20039;-65
2021/12/31 14:57:38;;;;;;;2.03;1.13;;;13.10;99.90;;;;;;5127747;27;20031;-65
2021/12/31 15:00:06;;;;;;;3.03;1.30;;;13.10;99.90;;;;;;5114821;27;20035;-65
2021/12/31 15:02:32;;;;;;;1.23;0.93;;;13.20;99.90;;;;;;5124602;27;20042;-65
2021/12/31 15:04:57;;;;;;;2.90;1.25;;;13.20;99.90;;;;;;5112470;27;20441;-64
2021/12/31 15:07:23;;;;;;;3.13;1.33;;;13.20;99.90;;;;;;5126650;27;20091;-65
2021/12/31 15:09:50;;;;;;;1.58;1.00;;;13.20;99.90;;;;;;5130215;27;20027;-64
2021/12/31 15:12:16;;;;;;;1.35;0.98;;;13.20;99.90;;;;;;5128783;27;20402;-65
2021/12/31 15:14:41;;;;;;;3.17;1.00;;;13.20;99.90;;;;;;5130498;27;20019;-65
2021/12/31 15:17:07;;;;;;;3.17;1.17;;;13.20;99.90;;;;;;5128741;27;20027;-65
2021/12/31 15:19:33;;;;;;;0.93;0.90;;;13.20;99.90;;;;;;5130578;27;20050;-65
2021/12/31 15:22:00;;;;;;;1.55;1.35;;;13.20;99.90;;;;;;5128497;27;20459;-65
2021/12/31 15:24:26;;;;;;;2.15;1.40;;;13.20;99.90;;;;;;5130363;27;20033;-65
2021/12/31 15:26:52;;;;;;;1.40;1.08;;;13.20;99.90;;;;;;5127874;27;20118;-65
2021/12/31 15:29:18;;;;;;;1.42;1.20;;;13.20;99.90;;;;;;5130494;27;20604;-65
2021/12/31 15:31:43;;;;;;;1.75;1.10;;;13.20;99.90;;;;;;5128212;27;20039;-65
2021/12/31 15:34:49;;;;;;;1.00;0.88;;;13.20;99.90;;;;;;5112036;27;20023;-65
2021/12/31 15:38:08;;;;;;;1.52;1.20;;;13.20;99.90;;;;;;5121458;27;20355;-65
2021/12/31 15:41:33;;;;;;;1.42;0.98;;;13.20;99.90;;;;;;5117712;27;20029;-66
2021/12/31 15:44:59;;;;;;;2.13;1.08;;;13.20;99.90;;;;;;5116361;27;20035;-63
2021/12/31 15:48:24;;;;;;;1.25;1.13;;;13.20;99.90;;;;;;5125921;27;20063;-65
2021/12/31 15:51:49;;;;;;;2.60;1.30;;;13.10;99.90;;;;;;5122674;27;20034;-65
2021/12/31 15:55:17;;;;;;;2.65;1.20;;;13.20;99.90;;;;;;5121354;27;20041;-66
2021/12/31 15:58:42;;;;;;;5.28;1.40;;;13.20;99.90;;;;;;5129681;27;20038;-65
2021/12/31 16:02:06;;;;;;;2.50;1.52;;;13.10;99.90;;;;;;5125171;27;20035;-66
2021/12/31 16:05:31;;;;;;;2.53;1.63;;;13.10;99.90;;;;;;5124943;27;20470;-65
2021/12/31 16:08:56;;;;;;;2.28;1.63;;;13.10;99.90;;;;;;5109285;28;20040;-66
2021/12/31 16:12:21;;;;;;;5.28;2.00;;;13.10;99.90;;;;;;5127670;27;20046;-65
2021/12/31 16:15:47;;;;;;;2.55;1.98;;;13.10;99.90;;;;;;5125952;27;20253;-65
2021/12/31 16:19:13;;;;;;;1.30;1.15;;;13.10;99.90;;;;;;5108766;28;20050;-65
2021/12/31 16:22:38;;;;;;;2.17;1.73;;;13.10;99.90;;;;;;5103992;28;20556;-67
2021/12/31 16:26:03;;;;;;;2.63;1.35;;;13.00;99.90;;;;;;5130900;27;20027;-67
2021/12/31 16:29:28;;;;;;;4.15;2.10;;;12.90;99.90;;;;;;5141541;27;20548;-64
2021/12/31 16:32:54;;;;;;;2.38;1.48;;;12.90;99.90;;;;;;5131315;27;20041;-65
2021/12/31 16:35:39;;;;;;;4.85;2.33;;;12.90;99.90;;;;;;5116436;28;20035;-65
2021/12/31 16:38:24;;;;;;;4.65;2.10;;;12.80;99.90;;;;;;5122659;28;20042;-64
2021/12/31 16:40:50;;;;;;;4.88;1.90;;;12.80;99.90;;;;;;5118529;28;20022;-64
2021/12/31 16:43:55;;;;;;;3.20;2.05;;;12.70;99.90;;;;;;5121511;28;20031;-65
2021/12/31 16:47:21;;;;;;;3.42;1.67;;;12.60;99.90;;;;;;5117603;28;20028;-65
2021/12/31 16:50:46;;;;;;;2.38;1.77;;;12.60;99.90;;;;;;5124308;28;20035;-64
2021/12/31 16:54:11;;;;;;;4.97;2.00;;;12.50;99.90;;;;;;5120731;28;20035;-59
2021/12/31 16:57:37;;;;;;;4.35;2.67;;;12.50;99.90;;;;;;5128812;28;20375;-58
2021/12/31 17:01:02;;;;;;;5.47;2.88;;;12.40;99.90;;;;;;5124356;28;20035;-59
2021/12/31 17:04:27;;;;;;;5.28;3.03;;;12.30;99.90;;;;;;5111122;28;20031;-59
2021/12/31 17:07:53;;;;;;;5.95;3.25;;;12.30;99.90;;;;;;5128790;28;20079;-59
2021/12/31 17:11:18;;;;;;;3.83;2.63;;;12.20;99.90;;;;;;5126781;28;20175;-59
2021/12/31 17:14:44;;;;;;;5.30;2.85;;;12.20;99.90;;;;;;5122447;27;20403;-59
2021/12/31 17:18:09;;;;;;;4.88;3.22;;;12.10;99.90;;;;;;5127172;27;20035;-59
2021/12/31 17:21:34;;;;;;;4.63;2.75;;;12.10;99.90;;;;;;5127032;27;20059;-59
2021/12/31 17:25:00;;;;;;;6.57;2.95;;;12.00;99.90;;;;;;5124895;27;20046;-59
2021/12/31 17:28:25;;;;;;;4.55;3.20;;;12.00;99.90;;;;;;5126574;27;20148;-57
2021/12/31 17:31:51;;;;;;;5.32;3.13;;;12.00;99.90;;;;;;5129649;27;20035;-59
2021/12/31 17:35:16;;;;;;;7.85;4.90;;;11.90;99.90;;;;;;5128891;27;20515;-59
2021/12/31 17:38:41;;;;;;;7.80;4.25;;;11.90;99.90;;;;;;5130202;27;20052;-59
2021/12/31 17:42:06;;;;;;;8.85;5.05;;;11.90;99.90;;;;;;5126553;27;20035;-51
2021/12/31 17:45:32;;;;;;;6.72;3.72;;;11.80;99.90;;;;;;5130467;27;20039;-59
2021/12/31 17:48:58;;;;;;;7.10;3.88;;;11.80;99.90;;;;;;5124384;27;20050;-56
2021/12/31 17:52:23;;;;;;;6.97;4.50;;;11.80;99.90;;;;;;5132112;27;20054;-59
2021/12/31 17:55:48;;;;;;;4.75;3.42;;;11.80;99.90;;;;;;5125686;27;20031;-59
2021/12/31 17:59:13;;;;;;;6.03;3.50;;;11.70;99.90;;;;;;5124605;27;20102;-58
2021/12/31 18:02:39;;;;;;;5.32;3.67;;;11.70;99.90;;;;;;5111298;28;20507;-59
2021/12/31 18:06:04;;;;;;;7.53;4.13;;;11.70;99.90;;;;;;5127599;27;20039;-58
2021/12/31 18:09:29;;;;;;;6.25;4.07;;;11.70;99.90;;;;;;5123977;27;20418;-58
2021/12/31 18:12:55;;;;;;;8.90;5.03;;;11.70;99.90;;;;;;5131899;27;20035;-59
2021/12/31 18:16:21;;;;;;;8.52;5.07;;;11.70;99.90;;;;;;5129655;27;20038;-58
2021/12/31 18:19:45;;;;;;;6.70;4.47;;;11.70;99.90;;;;;;5124162;27;20035;-59
2021/12/31 18:23:14;;;;;;;10.50;4.78;;;11.70;99.90;;;;;;5129859;27;20031;-59
2021/12/31 18:26:36;;;;;;;5.00;3.58;;;11.70;99.90;;;;;;5129005;27;20537;-58
2021/12/31 18:30:01;;;;;;;5.90;4.43;;;11.70;99.90;;;;;;5118038;27;20104;-59
2021/12/31 18:33:27;;;;;;;8.10;4.15;;;11.70;99.90;;;;;;5110867;28;20035;-58
2021/12/31 18:36:52;;;;;;;8.43;5.65;;;11.80;99.90;;;;;;5129660;27;20155;-59
2021/12/31 18:40:18;;;;;;;8.15;4.25;;;11.80;99.90;;;;;;5123527;27;20042;-59
2021/12/31 18:43:43;;;;;;;5.78;4.50;;;11.80;99.90;;;;;;5118241;27;20126;-59
2021/12/31 18:50:22;;;;;;;8.93;5.93;;;11.80;99.90;;;;;;5124404;27;20581;-59
2021/12/31 18:53:45;;;;;;;9.07;5.25;;;11.80;99.90;;;;;;5128506;27;20078;-59
2021/12/31 18:57:10;;;;;;;6.25;4.57;;;11.80;99.90;;;;;;5125315;27;20035;-58
2021/12/31 19:00:36;;;;;;;8.18;4.80;;;11.80;99.90;;;;;;5123265;27;20035;-59
2021/12/31 19:04:01;;;;;;;8.27;5.40;;;11.80;99.90;;;;;;5123026;27;20070;-58
2021/12/31 19:07:26;;;;;;;7.18;5.00;;;11.80;99.90;;;;;;5130522;27;20402;-59
2021/12/31 19:10:52;;;;;;;10.00;6.90;;;11.90;99.90;;;;;;5126908;27;20027;-59
2021/12/31 19:14:17;;;;;;;8.60;6.38;;;11.90;99.90;;;;;;5125718;27;20330;-59
2021/12/31 19:17:45;;;;;;;7.70;5.68;;;11.90;99.90;;;;;;5110200;28;20080;-59
2021/12/31 19:21:08;;;;;;;7.93;5.22;;;12.00;99.90;;;;;;5126714;27;20478;-58
2021/12/31 19:24:33;;;;;;;9.60;6.70;;;11.90;99.90;;;;;;5122582;27;20027;-58
2021/12/31 19:27:59;;;;;;;8.20;5.22;;;11.90;99.90;;;;;;5113581;27;20053;-60
2021/12/31 19:31:24;;;;;;;7.28;4.78;;;11.90;99.90;;;;;;5109768;28;20028;-59
2021/12/31 19:34:49;;;;;;;12.90;5.22;;;11.90;99.90;;;;;;5126489;27;20039;-59
2021/12/31 19:38:15;;;;;;;6.00;4.28;;;11.80;99.90;;;;;;5109169;28;20561;-58
2021/12/31 19:41:40;;;;;;;8.88;6.25;;;11.80;99.90;;;;;;5123881;27;20027;-58
2021/12/31 19:45:05;;;;;;;10.27;6.30;;;11.80;99.90;;;;;;5122695;27;20121;-58
2021/12/31 19:48:31;;;;;;;13.45;9.90;;;11.90;99.90;;;;;;5124133;27;20058;-58
2021/12/31 19:51:56;;;;;;;11.70;7.80;;;11.90;99.90;;;;;;5128188;27;20035;-59
2021/12/31 19:55:21;;;;;;;10.30;7.07;;;11.90;99.90;;;;;;5122160;27;20387;-60
2021/12/31 19:58:47;;;;;;;8.27;6.28;;;11.90;99.90;;;;;;5124046;27;20035;-58
2021/12/31 20:02:12;;;;;;;7.68;5.95;;;11.90;99.90;;;;;;5124067;27;20501;-59
2021/12/31 20:05:38;;;;;;;7.78;5.13;;;11.90;99.90;;;;;;5122022;27;20031;-58
2021/12/31 20:09:03;;;;;;;6.55;5.20;;;11.80;99.90;;;;;;5121747;27;20043;-59
2021/12/31 20:11:50;;;;;;;5.78;4.30;;;11.90;99.90;;;;;;5129498;27;20137;-52
2021/12/31 20:14:16;;;;;;;7.60;4.95;;;11.90;99.90;;;;;;5127614;27;20084;-49
2021/12/31 20:16:42;;;;;;;7.80;4.53;;;11.90;99.90;;;;;;5129395;27;20027;-47
2021/12/31 20:19:07;;;;;;;6.30;4.15;;;11.90;99.90;;;;;;5127525;27;20023;-47
2021/12/31 20:21:33;;;;;;;7.50;4.72;;;11.90;99.90;;;;;;5129693;27;20413;-49
2021/12/31 20:23:58;;;;;;;6.15;4.28;;;11.90;99.90;;;;;;5127324;27;20084;-48
2021/12/31 20:26:24;;;;;;;8.98;5.70;;;12.00;99.90;;;;;;5129591;27;20410;-52
2021/12/31 20:28:52;;;;;;;8.98;6.45;;;11.90;99.90;;;;;;5127676;27;20039;-48
2021/12/31 20:31:18;;;;;;;8.18;6.00;;;12.00;99.90;;;;;;5129835;28;20210;-51
2021/12/31 20:33:43;;;;;;;10.60;7.53;;;12.00;99.90;;;;;;5127335;27;20478;-47
2021/12/31 20:36:09;;;;;;;12.38;7.10;;;12.00;99.90;;;;;;5129672;27;20035;-50
2021/12/31 20:38:34;;;;;;;10.45;7.63;;;12.00;99.90;;;;;;5127468;27;20031;-47
2021/12/31 20:41:00;;;;;;;14.27;10.20;;;12.00;99.90;;;;;;5129185;28;20024;-49
2021/12/31 20:43:25;;;;;;;28.98;21.38;;;12.00;99.90;;;;;;5123558;28;20031;-48
2021/12/31 20:45:52;;;;;;;17.23;13.88;;;12.00;99.90;;;;;;5129517;27;20605;-48
2021/12/31 20:48:18;;;;;;;13.13;9.65;;;12.00;99.90;;;;;;5127222;27;20043;-51
2021/12/31 20:50:43;;;;;;;11.65;9.10;;;12.00;99.90;;;;;;5133559;27;20023;-49
2021/12/31 20:53:09;;;;;;;11.27;8.63;;;12.00;99.90;;;;;;5133385;27;20498;-60
2021/12/31 20:55:34;;;;;;;9.23;6.35;;;12.00;99.90;;;;;;5131681;27;20031;-60
2021/12/31 20:58:00;;;;;;;9.95;7.30;;;12.00;99.90;;;;;;5133221;27;20063;-60
2021/12/31 21:00:27;;;;;;;12.25;8.65;;;12.10;99.90;;;;;;5131533;27;20046;-60
2021/12/31 21:02:57;;;;;;;10.85;7.18;;;12.10;99.90;;;;;;5133193;27;20095;-60
2021/12/31 21:05:23;;;;;;;8.82;6.63;;;12.10;99.90;;;;;;5131316;27;20023;-60
2021/12/31 21:07:48;;;;;;;9.75;5.95;;;12.10;99.90;;;;;;5133027;27;20103;-61
2021/12/31 21:10:15;;;;;;;10.55;7.32;;;12.00;99.90;;;;;;5131231;27;20474;-60
2021/12/31 21:12:40;;;;;;;9.55;6.28;;;12.00;99.90;;;;;;5132721;27;20023;-61
2021/12/31 21:15:06;;;;;;;8.88;5.97;;;12.00;99.90;;;;;;5131274;27;20030;-60
2021/12/31 21:17:33;;;;;;;7.40;5.72;;;12.00;99.90;;;;;;5132997;27;20027;-60
2021/12/31 21:19:59;;;;;;;8.45;5.63;;;12.00;99.90;;;;;;5130899;27;20126;-60
2021/12/31 21:22:26;;;;;;;9.85;7.20;;;12.00;99.90;;;;;;5132782;27;20106;-60
2021/12/31 21:24:51;;;;;;;8.50;6.28;;;11.90;99.90;;;;;;5130923;27;20027;-59
2021/12/31 21:27:17;;;;;;;11.07;7.10;;;12.00;99.90;;;;;;5132398;27;20497;-60
2021/12/31 21:29:43;;;;;;;9.63;6.88;;;12.00;99.90;;;;;;5130877;27;20027;-60
2021/12/31 21:32:09;;;;;;;9.93;6.57;;;12.00;99.90;;;;;;5132625;27;20123;-60
2021/12/31 21:34:34;;;;;;;10.27;7.43;;;12.00;99.90;;;;;;5130685;27;20038;-60
2021/12/31 21:37:00;;;;;;;10.98;6.40;;;12.00;99.90;;;;;;5132218;27;20066;-60
2021/12/31 21:39:26;;;;;;;8.70;6.43;;;12.00;99.90;;;;;;5130584;27;20409;-60
2021/12/31 21:41:52;;;;;;;32.75;20.88;;;12.00;99.90;;;;;;5128320;27;20023;-60
2021/12/31 21:44:17;;;;;;;20.52;13.45;;;12.00;99.90;;;;;;5130718;27;20236;-60
2021/12/31 21:46:43;;;;;;;19.88;11.80;;;12.00;99.90;;;;;;5132490;27;20125;-60
2021/12/31 21:49:08;;;;;;;16.77;11.30;;;12.10;99.90;;;;;;5130350;27;20031;-60
2021/12/31 21:51:34;;;;;;;15.93;10.38;;;12.00;99.90;;;;;;5132525;27;20020;-60
2021/12/31 21:54:00;;;;;;;10.23;8.10;;;12.00;99.90;;;;;;5129936;27;20076;-61
2021/12/31 21:56:27;;;;;;;13.38;9.00;;;12.00;99.90;;;;;;5132471;27;20105;-61
2021/12/31 21:58:52;;;;;;;13.80;8.70;;;12.00;99.90;;;;;;5130266;27;20023;-60
2021/12/31 22:01:18;;;;;;;16.00;9.55;;;12.00;99.90;;;;;;5131760;27;20026;-60
2021/12/31 22:03:43;;;;;;;13.93;10.07;;;12.10;99.90;;;;;;5130269;27;20037;-60
2021/12/31 22:06:08;;;;;;;12.65;8.05;;;12.10;99.90;;;;;;5132149;27;20027;-60
2021/12/31 22:08:34;;;;;;;9.13;6.65;;;12.10;99.90;;;;;;5130107;27;20097;-61
2021/12/31 22:11:00;;;;;;;10.90;6.95;;;12.10;99.90;;;;;;5131802;27;20026;-60
2021/12/31 22:13:27;;;;;;;14.38;10.55;;;12.10;99.90;;;;;;5130030;27;20035;-60
2021/12/31 22:15:52;;;;;;;12.93;8.98;;;12.10;99.90;;;;;;5132256;27;20015;-60
2021/12/31 22:18:18;;;;;;;12.00;8.45;;;12.10;99.90;;;;;;5129631;27;20031;-60
2021/12/31 22:20:43;;;;;;;12.55;9.00;;;12.10;99.90;;;;;;5132084;27;20023;-60
2021/12/31 22:23:09;;;;;;;12.63;7.97;;;12.10;99.90;;;;;;5131741;27;20034;-60
2021/12/31 22:25:34;;;;;;;12.07;9.00;;;12.10;99.90;;;;;;5129905;27;20023;-60
2021/12/31 22:28:00;;;;;;;17.63;11.20;;;12.10;99.90;;;;;;5130921;27;20185;-60
2021/12/31 22:30:25;;;;;;;16.17;9.57;;;12.10;99.90;;;;;;5129767;27;20398;-60
2021/12/31 22:32:51;;;;;;;13.27;10.13;;;12.10;99.90;;;;;;5131451;27;20032;-60
2021/12/31 22:35:16;;;;;;;15.05;10.55;;;12.10;99.90;;;;;;5129666;27;20031;-60
2021/12/31 22:37:42;;;;;;;11.77;8.85;;;12.10;99.90;;;;;;5131370;27;20573;-60
2021/12/31 22:40:09;;;;;;;14.20;9.57;;;12.10;99.90;;;;;;5129536;27;20504;-60
2021/12/31 22:42:34;;;;;;;12.93;9.70;;;12.10;99.90;;;;;;5124045;27;20038;-60
2021/12/31 22:45:02;;;;;;;13.70;9.43;;;12.10;99.90;;;;;;5129133;27;20027;-60
2021/12/31 22:47:28;;;;;;;10.55;7.43;;;12.10;99.90;;;;;;5131270;27;20111;-60
2021/12/31 22:49:53;;;;;;;13.93;9.00;;;12.10;99.90;;;;;;5129196;27;20069;-60
2021/12/31 22:52:19;;;;;;;13.63;9.65;;;12.10;99.90;;;;;;5130872;27;20045;-60
2021/12/31 22:54:44;;;;;;;13.18;8.60;;;12.10;99.90;;;;;;5129212;27;20045;-60
2021/12/31 22:57:10;;;;;;;13.30;9.27;;;12.10;99.90;;;;;;5130908;27;20015;-60
2021/12/31 22:59:36;;;;;;;10.30;7.90;;;12.10;99.90;;;;;;5129329;27;20032;-60
2021/12/31 23:02:02;;;;;;;11.48;8.75;;;12.10;99.90;;;;;;5130547;27;20061;-60
2021/12/31 23:04:28;;;;;;;16.65;10.52;;;12.10;99.90;;;;;;5128982;27;20386;-60
2021/12/31 23:06:54;;;;;;;16.60;12.43;;;12.10;99.90;;;;;;5131017;27;20023;-60
2021/12/31 23:09:19;;;;;;;22.92;16.35;;;12.10;99.90;;;;;;5128596;27;20031;-60
2021/12/31 23:11:45;;;;;;;48.35;33.63;;;12.00;99.90;;;;;;5129920;27;20054;-60
2021/12/31 23:14:13;;;;;;;61.38;42.58;;;12.00;99.90;;;;;;5128722;27;20033;-60
2021/12/31 23:16:40;;;;;;;110.32;73.97;;;12.10;99.90;;;;;;5130562;27;20019;-60
2021/12/31 23:19:05;;;;;;;80.10;54.10;;;12.10;99.90;;;;;;5128569;27;20042;-60
2021/12/31 23:21:32;;;;;;;140.98;98.75;;;12.10;99.90;;;;;;5130656;27;20027;-60
2021/12/31 23:23:57;;;;;;;128.27;90.45;;;12.10;99.90;;;;;;5128404;27;20084;-60
2021/12/31 23:26:23;;;;;;;145.57;100.72;;;12.10;99.90;;;;;;5130370;27;20034;-60
2021/12/31 23:28:50;;;;;;;99.43;69.15;;;12.10;99.90;;;;;;5128218;27;20086;-60
2021/12/31 23:31:16;;;;;;;83.25;58.22;;;12.20;99.90;;;;;;5130445;27;20027;-60
2021/12/31 23:33:42;;;;;;;77.68;55.58;;;12.20;99.90;;;;;;5128170;27;20168;-60
2021/12/31 23:36:08;;;;;;;79.43;55.45;;;12.10;99.90;;;;;;5130286;27;20067;-60
2021/12/31 23:38:34;;;;;;;102.35;78.35;;;12.10;99.90;;;;;;5128233;27;20173;-60
2021/12/31 23:41:01;;;;;;;103.40;71.72;;;12.10;99.90;;;;;;5130012;27;20019;-60
2021/12/31 23:43:38;;;;;;;92.82;62.53;;;12.20;99.90;;;;;;5120580;27;20027;-60
2021/12/31 23:46:05;;;;;;;79.50;58.05;;;12.20;99.90;;;;;;5130015;27;20026;-60
2021/12/31 23:48:31;;;;;;;77.95;56.63;;;12.20;99.90;;;;;;5128076;27;20031;-60
2021/12/31 23:50:57;;;;;;;80.05;56.15;;;12.20;99.90;;;;;;5129941;27;20027;-60
2021/12/31 23:53:22;;;;;;;78.57;49.97;;;12.20;99.90;;;;;;5127814;27;20131;-60
2021/12/31 23:55:48;;;;;;;68.25;45.15;;;12.10;99.90;;;;;;5130091;27;20490;-60
2021/12/31 23:58:13;;;;;;;84.95;60.55;;;12.10;99.90;;;;;;5129834;27;20110;-60
